createdAt,value
2019-04-10T00:02:39.917Z,49.47
2019-04-10T00:07:43.846Z,48.57
2019-04-10T00:12:47.683Z,48.77
2019-04-10T00:17:51.524Z,48.97
2019-04-10T00:22:55.079Z,49.37
2019-04-10T00:27:59.044Z,48.83
2019-04-10T00:33:02.765Z,48.47
2019-04-10T00:38:07.172Z,49.37
2019-04-10T00:43:10.916Z,48.07
2019-04-10T00:48:15.501Z,49.07
2019-04-10T00:53:19.139Z,49.00
2019-04-10T00:58:22.808Z,49.13
2019-04-10T01:03:46.626Z,49.60
2019-04-10T01:08:50.953Z,48.80
2019-04-10T01:13:54.570Z,48.93
2019-04-10T01:18:58.166Z,49.30
2019-04-10T01:24:01.748Z,49.10
2019-04-10T01:29:05.391Z,48.57
2019-04-10T01:34:09.430Z,48.70
2019-04-10T01:39:17.947Z,48.37
2019-04-10T01:44:22.683Z,49.97
2019-04-10T01:49:26.336Z,48.53
2019-04-10T01:54:31.113Z,48.57
2019-04-10T01:59:36.334Z,49.47
2019-04-10T02:04:39.887Z,50.83
2019-04-10T02:09:43.544Z,48.20
2019-04-10T02:14:47.052Z,48.77
2019-04-10T02:19:50.637Z,48.43
2019-04-10T02:24:54.229Z,48.13
2019-04-10T02:29:57.927Z,48.00
2019-04-10T02:35:03.635Z,47.43
2019-04-10T02:40:09.926Z,47.13
2019-04-10T02:45:15.050Z,47.10
2019-04-10T02:50:20.764Z,48.43
2019-04-10T02:55:25.043Z,46.87
2019-04-10T03:00:30.189Z,46.33
2019-04-10T03:05:34.618Z,47.10
2019-04-10T03:10:44.443Z,46.73
2019-04-10T03:15:44.202Z,45.63
2019-04-10T03:20:48.748Z,44.98
2019-04-10T03:25:53.006Z,45.63
2019-04-10T03:30:58.726Z,44.93
2019-04-10T03:36:03.107Z,44.17
2019-04-10T03:41:08.076Z,43.83
2019-04-10T03:46:12.820Z,42.80
2019-04-10T03:51:18.676Z,40.92
2019-04-10T03:56:21.974Z,41.63
2019-04-10T04:01:25.633Z,42.13
2019-04-10T04:06:29.280Z,42.70
2019-04-10T04:11:33.541Z,42.77
2019-04-10T04:16:37.402Z,42.77
2019-04-10T04:21:41.842Z,41.47
2019-04-10T04:26:46.475Z,41.97
2019-04-10T04:31:50.702Z,40.47
2019-04-10T04:36:54.363Z,39.63
2019-04-10T04:41:58.793Z,39.33
2019-04-10T04:47:03.404Z,39.23
2019-04-10T04:52:07.034Z,40.50
2019-04-10T04:57:10.736Z,39.57
2019-04-10T05:02:14.415Z,39.10
2019-04-10T05:07:18.036Z,40.70
2019-04-10T05:12:21.632Z,39.53
2019-04-10T05:17:25.321Z,39.47
2019-04-10T05:22:29.070Z,39.97
2019-04-10T05:27:33.075Z,38.60
2019-04-10T05:32:37.599Z,39.07
2019-04-10T05:37:41.400Z,38.47
2019-04-10T05:42:45.038Z,39.50
2019-04-10T05:47:48.666Z,40.40
2019-04-10T05:52:52.281Z,38.93
2019-04-10T05:57:55.972Z,39.37
2019-04-10T06:03:00.458Z,38.93
2019-04-10T06:08:04.324Z,38.37
2019-04-10T06:13:08.885Z,38.33
2019-04-10T06:18:13.884Z,39.27
2019-04-10T06:23:17.710Z,38.87
2019-04-10T06:28:21.668Z,39.40
2019-04-10T06:33:27.139Z,38.03
2019-04-10T06:38:31.003Z,38.87
2019-04-10T06:43:34.698Z,39.23
2019-04-10T06:48:38.479Z,38.73
2019-04-10T06:53:42.152Z,39.90
2019-04-10T06:58:45.725Z,38.63
2019-04-10T07:03:56.531Z,39.40
2019-04-10T07:08:55.343Z,39.23
2019-04-10T07:13:59.850Z,38.87
2019-04-10T07:19:06.018Z,39.60
2019-04-10T07:24:10.996Z,40.47
2019-04-10T07:29:19.709Z,40.20
2019-04-10T07:34:23.867Z,41.90
2019-04-10T07:39:28.102Z,44.07
2019-04-10T07:44:30.468Z,40.57
2019-04-10T07:49:34.708Z,40.77
2019-04-10T07:54:41.752Z,41.57
2019-04-10T07:59:45.281Z,42.33
2019-04-10T08:04:48.946Z,42.83
2019-04-10T08:09:54.040Z,43.33
2019-04-10T08:14:57.924Z,42.53
2019-04-10T08:20:01.668Z,42.37
2019-04-10T08:25:07.077Z,42.73
2019-04-10T08:30:11.212Z,42.00
2019-04-10T08:35:15.492Z,41.53
2019-04-10T08:40:21.055Z,42.14
2019-04-10T08:45:26.377Z,41.93
2019-04-10T08:50:30.253Z,41.90
2019-04-10T08:55:34.678Z,41.87
2019-04-10T09:00:38.800Z,42.13
2019-04-10T09:05:42.742Z,40.67
2019-04-10T09:10:47.040Z,41.05
2019-04-10T09:15:50.596Z,40.83
2019-04-10T09:20:55.123Z,43.00
2019-04-10T09:25:59.641Z,41.00
2019-04-10T09:31:03.523Z,40.33
2019-04-10T09:36:07.333Z,40.90
2019-04-10T09:41:11.917Z,41.28
2019-04-10T09:46:16.170Z,40.57
2019-04-10T09:51:19.924Z,39.53
2019-04-10T09:56:23.519Z,41.63
2019-04-10T10:01:30.205Z,39.67
2019-04-10T10:06:36.528Z,40.70
2019-04-10T10:11:39.593Z,40.27
2019-04-10T10:16:44.204Z,40.77
2019-04-10T10:21:48.321Z,40.27
2019-04-10T10:26:52.002Z,41.03
2019-04-10T10:31:55.654Z,40.83
2019-04-10T10:37:03.449Z,42.20
2019-04-10T10:42:07.515Z,41.88
2019-04-10T10:47:11.765Z,41.57
2019-04-10T10:52:15.661Z,42.27
2019-04-10T10:57:19.428Z,42.17
2019-04-10T11:02:23.521Z,42.67
2019-04-10T11:07:27.273Z,42.53
2019-04-10T11:12:30.977Z,42.37
2019-04-10T11:17:35.710Z,42.03
2019-04-10T11:22:39.946Z,42.50
2019-04-10T11:27:43.702Z,41.83
2019-04-10T11:32:48.726Z,42.30
2019-04-10T11:37:55.858Z,42.83
2019-04-10T11:42:59.998Z,42.40
2019-04-10T11:48:03.520Z,42.10
2019-04-10T11:53:09.707Z,42.27
2019-04-10T11:58:14.524Z,42.40
2019-04-10T12:03:18.390Z,42.40
2019-04-10T12:08:46.424Z,43.07
2019-04-10T12:13:27.537Z,42.17
2019-04-10T12:18:31.111Z,42.93
2019-04-10T12:23:34.831Z,41.63
2019-04-10T12:28:38.424Z,42.43
2019-04-10T12:33:42.462Z,41.77
2019-04-10T12:38:46.083Z,41.90
2019-04-10T12:43:49.849Z,42.17
2019-04-10T12:48:53.420Z,42.40
2019-04-10T12:53:58.265Z,42.30
2019-04-10T12:59:02.160Z,41.70
2019-04-10T13:04:05.815Z,42.27
2019-04-10T13:09:12.830Z,41.37
2019-04-10T13:14:14.980Z,42.20
2019-04-10T13:19:18.812Z,41.63
2019-04-10T13:24:23.642Z,42.30
2019-04-10T13:29:28.007Z,41.57
2019-04-10T13:34:31.758Z,42.37
2019-04-10T13:39:35.430Z,43.30
2019-04-10T13:44:39.037Z,41.87
2019-04-10T13:49:42.684Z,41.60
2019-04-10T13:54:47.157Z,41.60
2019-04-10T13:59:50.810Z,42.77
2019-04-10T14:04:55.465Z,42.73
2019-04-10T14:09:59.257Z,50.33
2019-04-10T14:15:02.893Z,43.00
2019-04-10T14:20:07.893Z,42.17
2019-04-10T14:25:22.006Z,43.93
2019-04-10T14:30:43.223Z,44.20
2019-04-10T14:35:47.344Z,42.57
2019-04-10T14:40:51.868Z,44.53
2019-04-10T14:45:55.571Z,42.97
2019-04-10T14:51:00.200Z,41.70
2019-04-10T14:56:04.432Z,45.47
2019-04-10T15:01:08.594Z,44.35
2019-04-10T15:06:15.417Z,41.47
2019-04-10T15:11:19.324Z,42.17
2019-04-10T15:16:23.190Z,42.23
2019-04-10T15:21:27.088Z,43.07
2019-04-10T15:26:30.859Z,42.60
2019-04-10T15:31:35.453Z,42.07
2019-04-10T15:36:40.376Z,42.23
2019-04-10T15:41:45.731Z,43.00
2019-04-10T15:46:49.489Z,43.07
2019-04-10T15:51:53.228Z,42.83
2019-04-10T15:56:56.931Z,42.20
2019-04-10T16:02:01.522Z,43.93
2019-04-10T16:07:06.245Z,43.83
2019-04-10T16:12:11.758Z,45.17
2019-04-10T16:17:34.949Z,45.23
2019-04-10T16:22:40.600Z,41.50
2019-04-10T16:27:45.276Z,42.17
2019-04-10T16:32:50.086Z,42.10
2019-04-10T16:37:53.952Z,43.17
2019-04-10T16:42:57.695Z,43.63
2019-04-10T16:48:01.265Z,42.23
2019-04-10T16:53:05.562Z,41.33
2019-04-10T16:58:09.590Z,40.57
2019-04-10T17:03:13.599Z,41.73
2019-04-10T17:08:17.158Z,42.47
2019-04-10T17:13:20.911Z,41.37
2019-04-10T17:18:26.078Z,41.37
2019-04-10T17:23:29.880Z,41.10
2019-04-10T17:28:34.530Z,41.83
2019-04-10T17:33:41.772Z,41.00
2019-04-10T17:38:46.742Z,41.53
2019-04-10T17:43:51.570Z,55.67
2019-04-10T17:48:55.525Z,54.80
2019-04-10T17:53:59.981Z,42.63
2019-04-10T17:59:03.712Z,43.53
2019-04-10T18:04:09.466Z,42.37
2019-04-10T18:09:13.752Z,45.77
2019-04-10T18:14:17.445Z,44.63
2019-04-10T18:19:21.304Z,42.07
2019-04-10T18:24:24.885Z,43.73
2019-04-10T18:29:28.575Z,55.90
2019-04-10T18:34:33.370Z,43.50
2019-04-10T18:39:37.063Z,45.60
2019-04-10T18:44:41.535Z,45.60
2019-04-10T18:49:45.525Z,42.40
2019-04-10T18:54:49.949Z,44.00
2019-04-10T18:59:55.296Z,44.40
2019-04-10T19:05:13.904Z,42.00
2019-04-10T19:10:17.992Z,44.48
2019-04-10T19:15:22.425Z,43.17
2019-04-10T19:20:26.811Z,42.13
2019-04-10T19:25:30.548Z,41.30
2019-04-10T19:30:37.387Z,41.53
2019-04-10T19:35:41.379Z,41.77
2019-04-10T19:40:45.829Z,40.73
2019-04-10T19:45:50.267Z,40.03
2019-04-10T19:50:54.676Z,41.18
2019-04-10T19:55:58.317Z,47.43
2019-04-10T20:01:03.237Z,42.30
2019-04-10T20:06:07.886Z,42.70
2019-04-10T20:11:11.538Z,42.13
2019-04-10T20:16:15.334Z,42.97
2019-04-10T20:21:19.649Z,42.80
2019-04-10T20:26:23.385Z,43.57
2019-04-10T20:31:29.023Z,43.23
2019-04-10T20:36:33.214Z,43.03
2019-04-10T20:41:46.534Z,43.67
2019-04-10T20:46:42.429Z,45.63
2019-04-10T20:51:47.451Z,47.73
2019-04-10T20:56:51.366Z,43.00
2019-04-10T21:01:55.806Z,42.67
2019-04-10T21:07:00.631Z,43.80
2019-04-10T21:12:09.839Z,44.97
2019-04-10T21:17:09.876Z,43.13
2019-04-10T21:22:13.807Z,43.80
2019-04-10T21:27:18.595Z,42.90
2019-04-10T21:32:23.997Z,41.27
2019-04-10T21:37:28.459Z,42.27
2019-04-10T21:42:32.100Z,42.23
2019-04-10T21:47:35.781Z,42.87
2019-04-10T21:52:39.429Z,41.13
2019-04-10T21:57:43.103Z,41.30
2019-04-10T22:02:46.679Z,41.03
2019-04-10T22:07:58.808Z,40.87
2019-04-10T22:13:03.652Z,41.10
2019-04-10T22:18:07.521Z,40.73
2019-04-10T22:23:11.718Z,40.60
2019-04-10T22:28:15.593Z,40.10
2019-04-10T22:33:20.236Z,40.37
2019-04-10T22:38:24.958Z,39.20
2019-04-10T22:43:28.795Z,38.93
2019-04-10T22:48:32.918Z,40.33
2019-04-10T22:53:37.466Z,40.20
2019-04-10T22:58:42.458Z,40.47
2019-04-10T23:03:47.342Z,41.13
2019-04-10T23:08:51.690Z,39.50
2019-04-10T23:13:56.373Z,39.20
2019-04-10T23:19:00.050Z,40.37
2019-04-10T23:24:04.029Z,38.90
2019-04-10T23:29:08.383Z,39.57
2019-04-10T23:34:12.554Z,39.07
2019-04-10T23:39:16.390Z,38.37
2019-04-10T23:44:20.686Z,39.07
2019-04-10T23:49:25.566Z,38.43
2019-04-10T23:54:29.369Z,39.57
2019-04-10T23:59:33.047Z,37.50
